createdAt,value
2018-12-17T00:00:51.748Z,97.57
2018-12-17T00:01:54.549Z,97.66
2018-12-17T00:02:57.551Z,97.42
2018-12-17T00:04:00.382Z,97.84
2018-12-17T00:05:03.217Z,97.60
2018-12-17T00:06:06.023Z,97.76
2018-12-17T00:07:09.300Z,97.04
2018-12-17T00:08:12.076Z,97.71
2018-12-17T00:09:15.900Z,97.43
2018-12-17T00:10:19.415Z,97.28
2018-12-17T00:11:22.227Z,97.37
2018-12-17T00:12:25.021Z,97.60
2018-12-17T00:13:28.095Z,97.80
2018-12-17T00:14:30.861Z,98.06
2018-12-17T00:15:33.644Z,97.96
2018-12-17T00:16:36.542Z,97.14
2018-12-17T00:17:39.320Z,98.05
2018-12-17T00:18:42.114Z,97.90
2018-12-17T00:19:45.202Z,97.57
2018-12-17T00:20:47.984Z,97.85
2018-12-17T00:21:50.791Z,97.83
2018-12-17T00:22:53.554Z,97.36
2018-12-17T00:23:56.762Z,97.72
2018-12-17T00:24:59.553Z,97.58
2018-12-17T00:26:02.662Z,97.84
2018-12-17T00:27:05.936Z,96.94
2018-12-17T00:28:08.799Z,97.95
2018-12-17T00:29:11.616Z,98.25
2018-12-17T00:30:16.293Z,98.03
2018-12-17T00:31:19.035Z,97.54
2018-12-17T00:32:22.097Z,98.11
2018-12-17T00:33:29.243Z,97.69
2018-12-17T00:34:32.106Z,97.57
2018-12-17T00:35:35.215Z,97.82
2018-12-17T00:36:39.454Z,98.09
2018-12-17T00:37:42.236Z,97.87
2018-12-17T00:38:46.170Z,97.71
2018-12-17T00:39:48.932Z,97.61
2018-12-17T00:40:52.886Z,98.10
2018-12-17T00:41:55.661Z,98.19
2018-12-17T00:42:58.443Z,97.77
2018-12-17T00:44:01.249Z,98.38
2018-12-17T00:45:04.052Z,97.90
2018-12-17T00:46:06.869Z,97.84
2018-12-17T00:47:09.607Z,98.20
2018-12-17T00:48:12.386Z,98.23
2018-12-17T00:49:15.187Z,98.38
2018-12-17T00:50:18.401Z,97.72
2018-12-17T00:51:22.113Z,97.83
2018-12-17T00:52:24.897Z,98.40
2018-12-17T00:53:27.666Z,98.23
2018-12-17T00:54:30.462Z,98.39
2018-12-17T00:55:33.231Z,97.87
2018-12-17T00:56:36.005Z,97.45
2018-12-17T00:57:39.156Z,98.52
2018-12-17T00:58:41.888Z,97.90
2018-12-17T00:59:44.665Z,97.81
2018-12-17T01:00:47.437Z,98.53
2018-12-17T01:01:50.235Z,98.36
2018-12-17T01:02:52.953Z,97.86
2018-12-17T01:03:57.423Z,98.44
2018-12-17T01:05:00.194Z,98.05
2018-12-17T01:06:03.029Z,98.46
2018-12-17T01:07:05.871Z,98.37
2018-12-17T01:08:08.676Z,98.24
2018-12-17T01:09:11.525Z,98.23
2018-12-17T01:10:14.630Z,98.50
2018-12-17T01:11:17.468Z,98.10
2018-12-17T01:12:20.499Z,98.09
2018-12-17T01:13:23.265Z,98.17
2018-12-17T01:14:26.061Z,97.95
2018-12-17T01:15:28.834Z,98.43
2018-12-17T01:16:32.069Z,98.00
2018-12-17T01:17:34.851Z,98.06
2018-12-17T01:18:37.771Z,98.51
2018-12-17T01:19:40.607Z,98.02
2018-12-17T01:20:43.518Z,98.20
2018-12-17T01:21:46.397Z,97.79
2018-12-17T01:22:49.449Z,97.88
2018-12-17T01:23:52.414Z,97.93
2018-12-17T01:24:55.194Z,98.11
2018-12-17T01:25:58.047Z,98.18
2018-12-17T01:27:00.830Z,97.92
2018-12-17T01:28:03.611Z,97.89
2018-12-17T01:29:06.742Z,98.54
2018-12-17T01:30:09.511Z,98.19
2018-12-17T01:31:12.253Z,97.80
2018-12-17T01:32:15.016Z,97.52
2018-12-17T01:33:17.790Z,97.73
2018-12-17T01:34:20.551Z,98.39
2018-12-17T01:35:23.630Z,98.17
2018-12-17T01:36:26.893Z,97.95
2018-12-17T01:37:29.634Z,98.33
2018-12-17T01:38:32.389Z,98.40
2018-12-17T01:39:35.205Z,98.03
2018-12-17T01:40:38.138Z,97.95
2018-12-17T01:41:41.225Z,98.00
2018-12-17T01:42:44.161Z,98.13
2018-12-17T01:43:46.976Z,97.78
2018-12-17T01:44:49.739Z,98.56
2018-12-17T01:45:52.606Z,98.07
2018-12-17T01:46:55.380Z,97.92
2018-12-17T01:47:58.577Z,98.28
2018-12-17T01:49:01.377Z,98.04
2018-12-17T01:50:04.174Z,97.94
2018-12-17T01:51:07.017Z,98.40
2018-12-17T01:52:09.799Z,97.85
2018-12-17T01:53:12.611Z,98.01
2018-12-17T01:54:15.949Z,98.54
2018-12-17T01:55:18.706Z,97.82
2018-12-17T01:56:21.531Z,98.59
2018-12-17T01:57:24.344Z,98.37
2018-12-17T01:58:29.303Z,98.10
2018-12-17T01:59:32.002Z,98.01
2018-12-17T02:00:35.258Z,97.89
2018-12-17T02:01:38.132Z,97.84
2018-12-17T02:02:41.303Z,98.53
2018-12-17T02:03:44.227Z,98.32
2018-12-17T02:04:47.923Z,98.06
2018-12-17T02:05:50.765Z,98.02
2018-12-17T02:06:54.251Z,98.29
2018-12-17T02:07:57.033Z,98.04
2018-12-17T02:09:00.168Z,98.00
2018-12-17T02:10:02.963Z,98.43
2018-12-17T02:11:05.737Z,98.23
2018-12-17T02:12:08.857Z,98.57
2018-12-17T02:13:11.735Z,97.90
2018-12-17T02:14:14.496Z,98.39
2018-12-17T02:15:17.351Z,98.66
2018-12-17T02:16:20.185Z,98.59
2018-12-17T02:17:23.135Z,98.16
2018-12-17T02:18:26.303Z,98.80
2018-12-17T02:19:29.038Z,98.62
2018-12-17T02:20:31.834Z,98.76
2018-12-17T02:21:34.583Z,98.49
2018-12-17T02:22:37.515Z,98.31
2018-12-17T02:23:40.293Z,98.23
2018-12-17T02:24:43.565Z,98.71
2018-12-17T02:25:46.312Z,98.75
2018-12-17T02:26:49.189Z,98.69
2018-12-17T02:27:51.965Z,98.19
2018-12-17T02:28:54.743Z,98.04
2018-12-17T02:29:57.547Z,98.74
2018-12-17T02:31:03.882Z,98.72
2018-12-17T02:32:07.094Z,98.20
2018-12-17T02:33:10.207Z,98.26
2018-12-17T02:34:13.168Z,98.58
2018-12-17T02:35:16.201Z,98.08
2018-12-17T02:36:19.183Z,98.20
2018-12-17T02:37:22.505Z,98.16
2018-12-17T02:38:25.481Z,98.23
2018-12-17T02:39:28.255Z,98.18
2018-12-17T02:40:31.442Z,98.21
2018-12-17T02:41:34.362Z,98.06
2018-12-17T02:42:37.502Z,97.92
2018-12-17T02:43:40.771Z,98.48
2018-12-17T02:44:43.704Z,98.67
2018-12-17T02:45:46.763Z,98.17
2018-12-17T02:46:49.563Z,98.61
2018-12-17T02:47:53.395Z,98.28
2018-12-17T02:48:56.625Z,98.60
2018-12-17T02:50:00.542Z,98.12
2018-12-17T02:51:03.338Z,98.41
2018-12-17T02:52:06.123Z,98.57
2018-12-17T02:53:08.867Z,98.06
2018-12-17T02:54:11.622Z,98.47
2018-12-17T02:55:14.831Z,98.20
2018-12-17T02:56:18.067Z,98.34
2018-12-17T02:57:21.017Z,98.19
2018-12-17T02:58:24.067Z,98.22
2018-12-17T02:59:26.972Z,97.75
2018-12-17T03:00:30.249Z,98.13
2018-12-17T03:01:33.021Z,98.38
2018-12-17T03:02:36.715Z,98.15
2018-12-17T03:03:39.579Z,98.19
2018-12-17T03:04:42.566Z,97.95
2018-12-17T03:05:45.473Z,98.05
2018-12-17T03:06:48.221Z,98.42
2018-12-17T03:07:51.154Z,97.96
2018-12-17T03:08:54.457Z,98.53
2018-12-17T03:09:57.357Z,98.60
2018-12-17T03:11:00.115Z,98.37
2018-12-17T03:12:02.905Z,98.03
2018-12-17T03:13:05.717Z,97.89
2018-12-17T03:14:08.509Z,97.91
2018-12-17T03:15:11.751Z,98.26
2018-12-17T03:16:14.506Z,98.22
2018-12-17T03:17:17.292Z,97.70
2018-12-17T03:18:20.217Z,97.97
2018-12-17T03:19:23.044Z,98.34
2018-12-17T03:20:25.896Z,97.99
2018-12-17T03:21:29.132Z,98.14
2018-12-17T03:22:31.910Z,98.52
2018-12-17T03:23:34.672Z,98.20
2018-12-17T03:24:37.433Z,98.08
2018-12-17T03:25:40.273Z,98.00
2018-12-17T03:26:43.066Z,98.58
2018-12-17T03:27:46.185Z,98.08
2018-12-17T03:28:51.928Z,98.50
2018-12-17T03:29:53.853Z,98.08
2018-12-17T03:30:56.710Z,98.45
2018-12-17T03:31:59.576Z,98.49
2018-12-17T03:33:02.364Z,98.54
2018-12-17T03:34:06.325Z,98.17
2018-12-17T03:35:09.497Z,98.21
2018-12-17T03:36:12.375Z,98.13
2018-12-17T03:37:16.517Z,97.85
2018-12-17T03:38:19.396Z,98.27
2018-12-17T03:39:22.184Z,98.46
2018-12-17T03:40:25.350Z,98.29
2018-12-17T03:41:29.442Z,98.38
2018-12-17T03:42:32.339Z,97.58
2018-12-17T03:43:35.181Z,97.71
2018-12-17T03:44:37.963Z,98.00
2018-12-17T03:45:40.821Z,98.11
2018-12-17T03:46:43.591Z,97.63
2018-12-17T03:47:46.374Z,98.27
2018-12-17T03:48:49.200Z,97.77
2018-12-17T03:49:52.017Z,98.28
2018-12-17T03:50:54.880Z,97.89
2018-12-17T03:51:57.705Z,97.82
2018-12-17T03:53:01.016Z,97.87
2018-12-17T03:54:04.564Z,97.79
2018-12-17T03:55:07.341Z,97.78
2018-12-17T03:56:10.193Z,97.83
2018-12-17T03:57:12.951Z,97.77
2018-12-17T03:58:15.707Z,97.91
2018-12-17T03:59:18.947Z,98.05
2018-12-17T04:00:21.683Z,97.73
2018-12-17T04:01:24.481Z,97.73
2018-12-17T04:02:27.271Z,98.10
2018-12-17T04:03:30.150Z,98.21
2018-12-17T04:04:32.996Z,98.33
2018-12-17T04:05:36.384Z,98.11
2018-12-17T04:06:39.365Z,97.68
2018-12-17T04:07:42.132Z,97.71
2018-12-17T04:08:44.978Z,97.81
2018-12-17T04:09:47.758Z,97.88
2018-12-17T04:10:50.497Z,97.64
2018-12-17T04:11:53.585Z,97.85
2018-12-17T04:12:56.431Z,98.28
2018-12-17T04:13:59.277Z,97.59
2018-12-17T04:15:02.034Z,98.26
2018-12-17T04:16:04.842Z,97.63
2018-12-17T04:17:07.661Z,98.05
2018-12-17T04:18:11.206Z,98.13
2018-12-17T04:19:13.992Z,97.67
2018-12-17T04:20:16.767Z,97.88
2018-12-17T04:21:19.554Z,97.85
2018-12-17T04:22:22.996Z,98.36
2018-12-17T04:23:25.762Z,98.06
2018-12-17T04:24:28.937Z,98.22
2018-12-17T04:25:31.830Z,97.75
2018-12-17T04:26:34.735Z,98.19
2018-12-17T04:27:37.560Z,97.76
2018-12-17T04:28:40.452Z,98.15
2018-12-17T04:29:43.294Z,97.71
2018-12-17T04:30:46.067Z,97.73
2018-12-17T04:31:50.047Z,98.14
2018-12-17T04:32:52.969Z,97.77
2018-12-17T04:33:55.728Z,97.78
2018-12-17T04:34:58.515Z,98.32
2018-12-17T04:36:01.862Z,97.87
2018-12-17T04:37:04.797Z,98.43
2018-12-17T04:38:07.550Z,98.26
2018-12-17T04:39:10.436Z,98.41
2018-12-17T04:40:13.221Z,98.04
2018-12-17T04:41:16.396Z,98.75
2018-12-17T04:42:19.730Z,98.90
2018-12-17T04:43:22.966Z,98.81
2018-12-17T04:44:25.772Z,98.71
2018-12-17T04:45:28.706Z,98.51
2018-12-17T04:46:31.626Z,98.39
2018-12-17T04:47:34.738Z,98.75
2018-12-17T04:48:37.628Z,98.59
2018-12-17T04:49:40.516Z,98.92
2018-12-17T04:50:43.419Z,98.33
2018-12-17T04:51:46.624Z,98.85
2018-12-17T04:52:50.022Z,98.94
2018-12-17T04:53:53.551Z,98.56
2018-12-17T04:54:56.412Z,98.83
2018-12-17T04:55:59.175Z,98.88
2018-12-17T04:57:02.448Z,98.98
2018-12-17T04:58:06.100Z,98.79
2018-12-17T04:59:14.641Z,99.18
2018-12-17T05:00:15.474Z,99.42
2018-12-17T05:01:18.196Z,99.36
2018-12-17T05:02:21.232Z,99.28
2018-12-17T05:03:24.699Z,98.91
2018-12-17T05:04:27.452Z,99.28
2018-12-17T05:05:30.751Z,99.33
2018-12-17T05:06:34.246Z,99.37
2018-12-17T05:07:37.199Z,99.10
2018-12-17T05:08:40.052Z,99.53
2018-12-17T05:09:44.418Z,99.55
2018-12-17T05:10:47.463Z,99.66
2018-12-17T05:11:50.770Z,99.50
2018-12-17T05:12:53.532Z,99.14
2018-12-17T05:13:56.483Z,99.27
2018-12-17T05:14:59.389Z,99.53
2018-12-17T05:16:02.287Z,99.64
2018-12-17T05:17:05.236Z,99.61
2018-12-17T05:18:08.688Z,99.91
2018-12-17T05:19:11.656Z,99.43
2018-12-17T05:20:14.583Z,99.22
2018-12-17T05:21:17.419Z,99.50
2018-12-17T05:22:21.301Z,99.46
2018-12-17T05:23:24.694Z,99.53
2018-12-17T05:24:29.173Z,99.30
2018-12-17T05:25:31.932Z,99.83
2018-12-17T05:26:34.724Z,99.78
2018-12-17T05:27:37.481Z,99.29
2018-12-17T05:28:40.270Z,99.29
2018-12-17T05:29:44.355Z,99.49
2018-12-17T05:30:47.491Z,99.42
2018-12-17T05:31:50.314Z,99.82
2018-12-17T05:32:53.360Z,99.61
2018-12-17T05:33:56.135Z,99.31
2018-12-17T05:34:59.318Z,99.30
2018-12-17T05:36:02.236Z,99.11
2018-12-17T05:37:05.302Z,99.60
2018-12-17T05:38:08.045Z,99.27
2018-12-17T05:39:10.838Z,99.27
2018-12-17T05:40:13.566Z,99.17
2018-12-17T05:41:16.334Z,99.31
2018-12-17T05:42:19.154Z,99.23
2018-12-17T05:43:22.363Z,99.66
2018-12-17T05:44:25.122Z,99.60
2018-12-17T05:45:27.909Z,99.48
2018-12-17T05:46:30.674Z,99.59
2018-12-17T05:47:33.485Z,99.16
2018-12-17T05:48:36.318Z,99.24
2018-12-17T05:49:39.411Z,99.32
2018-12-17T05:50:42.175Z,99.48
2018-12-17T05:51:44.937Z,99.10
2018-12-17T05:52:48.520Z,99.55
2018-12-17T05:53:51.314Z,98.98
2018-12-17T05:54:54.102Z,99.05
2018-12-17T05:55:57.279Z,99.48
2018-12-17T05:57:00.137Z,99.03
2018-12-17T05:58:02.925Z,99.25
2018-12-17T05:59:05.690Z,99.21
2018-12-17T06:00:08.509Z,98.92
2018-12-17T06:01:11.363Z,99.02
2018-12-17T06:02:14.924Z,99.15
2018-12-17T06:03:18.257Z,99.21
2018-12-17T06:04:21.513Z,99.07
2018-12-17T06:05:24.883Z,99.40
2018-12-17T06:06:27.740Z,99.65
2018-12-17T06:07:31.222Z,99.08
2018-12-17T06:08:35.072Z,99.02
2018-12-17T06:09:38.059Z,99.21
2018-12-17T06:10:41.357Z,98.92
2018-12-17T06:11:44.515Z,99.10
2018-12-17T06:12:47.291Z,99.07
2018-12-17T06:13:50.626Z,98.90
2018-12-17T06:14:54.354Z,99.01
2018-12-17T06:15:57.144Z,99.24
2018-12-17T06:17:00.358Z,99.40
2018-12-17T06:18:04.710Z,99.08
2018-12-17T06:19:08.195Z,99.30
2018-12-17T06:20:11.547Z,98.91
2018-12-17T06:21:14.396Z,99.21
2018-12-17T06:22:18.399Z,99.38
2018-12-17T06:23:21.670Z,98.71
2018-12-17T06:24:25.927Z,98.81
2018-12-17T06:25:29.156Z,99.17
2018-12-17T06:26:32.484Z,98.97
2018-12-17T06:27:37.040Z,99.04
2018-12-17T06:28:40.918Z,99.30
2018-12-17T06:29:45.324Z,99.30
2018-12-17T06:43:51.535Z,99.06
2018-12-17T06:46:06.510Z,98.53
2018-12-17T06:47:09.774Z,98.65
2018-12-17T06:48:17.015Z,99.03
2018-12-17T06:49:18.701Z,98.46
2018-12-17T06:50:21.925Z,98.39
2018-12-17T06:51:25.128Z,98.54
2018-12-17T06:52:28.328Z,98.37
2018-12-17T06:53:31.915Z,98.49
2018-12-17T06:54:34.863Z,97.96
2018-12-17T06:55:39.978Z,98.74
2018-12-17T06:56:43.169Z,98.58
2018-12-17T06:57:46.418Z,98.74
2018-12-17T06:58:49.814Z,98.47
2018-12-17T06:59:52.624Z,98.32
2018-12-17T07:00:55.598Z,98.38
2018-12-17T07:02:00.016Z,98.57
2018-12-17T07:03:03.597Z,98.62
2018-12-17T07:04:06.849Z,98.32
2018-12-17T07:05:11.061Z,98.43
2018-12-17T07:06:14.461Z,98.78
2018-12-17T07:07:18.043Z,98.69
2018-12-17T07:08:21.648Z,98.14
2018-12-17T07:09:24.460Z,98.48
2018-12-17T07:10:30.898Z,98.17
2018-12-17T07:11:34.249Z,98.30
2018-12-17T07:12:37.546Z,98.52
2018-12-17T07:13:40.394Z,98.33
2018-12-17T07:14:43.876Z,98.45
2018-12-17T07:15:46.996Z,98.08
2018-12-17T07:16:50.567Z,98.23
2018-12-17T07:17:53.490Z,98.47
2018-12-17T07:18:56.564Z,98.70
2018-12-17T07:20:00.462Z,98.57
2018-12-17T07:21:05.012Z,98.58
2018-12-17T07:22:08.008Z,98.35
2018-12-17T07:23:11.320Z,98.26
2018-12-17T08:23:14.856Z,98.98
2018-12-17T08:24:17.693Z,98.85
2018-12-17T08:25:20.485Z,98.96
2018-12-17T08:26:23.605Z,98.60
2018-12-17T08:28:25.516Z,98.76
2018-12-17T08:29:28.594Z,99.18
2018-12-17T08:30:31.690Z,98.91
2018-12-17T08:31:34.571Z,99.09
2018-12-17T08:32:38.552Z,98.79
2018-12-17T08:33:41.499Z,99.27
2018-12-17T08:34:45.510Z,98.71
2018-12-17T08:35:50.181Z,99.25
2018-12-17T08:36:53.490Z,99.13
2018-12-17T08:37:56.389Z,99.07
2018-12-17T08:38:59.264Z,99.23
2018-12-17T08:40:02.465Z,99.04
2018-12-17T08:41:06.233Z,99.11
2018-12-17T08:42:09.508Z,99.34
2018-12-17T08:43:12.648Z,99.48
2018-12-17T08:44:16.047Z,99.14
2018-12-17T08:45:19.345Z,99.26
2018-12-17T08:46:22.546Z,99.49
2018-12-17T08:47:26.025Z,99.67
2018-12-17T08:48:29.558Z,99.42
2018-12-17T08:49:32.631Z,99.12
2018-12-17T08:50:37.573Z,99.33
2018-12-17T08:51:40.956Z,99.37
2018-12-17T08:52:43.967Z,98.82
2018-12-17T08:53:47.671Z,99.16
2018-12-17T08:54:51.986Z,98.99
2018-12-17T08:55:54.768Z,99.02
2018-12-17T08:56:57.706Z,98.72
2018-12-17T08:58:02.497Z,99.35
2018-12-17T08:59:05.277Z,99.23
2018-12-17T09:00:11.215Z,98.94
2018-12-17T09:01:13.613Z,99.22
2018-12-17T09:02:17.143Z,98.74
2018-12-17T09:03:20.032Z,98.89
2018-12-17T09:04:24.323Z,98.90
2018-12-17T09:05:27.203Z,98.95
2018-12-17T09:06:31.483Z,98.61
2018-12-17T09:07:34.518Z,98.78
2018-12-17T09:08:38.111Z,98.37
2018-12-17T09:09:41.539Z,98.97
2018-12-17T09:10:44.974Z,98.66
2018-12-17T09:11:47.901Z,99.07
2018-12-17T09:12:52.651Z,98.91
2018-12-17T09:13:55.839Z,99.01
2018-12-17T09:16:04.044Z,99.18
2018-12-17T09:17:07.601Z,99.02
2018-12-17T09:18:10.418Z,99.08
2018-12-17T09:19:13.662Z,99.16
2018-12-17T09:20:16.499Z,99.07
2018-12-17T09:21:19.317Z,99.01
2018-12-17T09:22:22.219Z,98.59
2018-12-17T09:23:24.997Z,98.74
2018-12-17T09:24:27.772Z,98.91
2018-12-17T09:25:30.994Z,98.60
2018-12-17T09:26:33.773Z,98.72
2018-12-17T09:27:36.572Z,98.38
2018-12-17T09:28:39.421Z,98.70
2018-12-17T09:29:42.857Z,98.89
2018-12-17T09:30:45.625Z,98.53
2018-12-17T09:31:50.016Z,99.11
2018-12-17T09:32:53.591Z,98.95
2018-12-17T09:33:56.398Z,98.67
2018-12-17T09:34:59.230Z,99.16
2018-12-17T09:36:02.854Z,98.74
2018-12-17T09:37:06.831Z,98.60
2018-12-17T09:38:11.640Z,99.09
2018-12-17T09:39:14.443Z,99.17
2018-12-17T09:40:17.224Z,99.36
2018-12-17T09:41:21.073Z,99.09
2018-12-17T09:42:23.883Z,98.89
2018-12-17T09:43:27.830Z,99.43
2018-12-17T09:44:33.789Z,98.92
2018-12-17T09:45:36.568Z,98.98
2018-12-17T09:46:39.412Z,98.98
2018-12-17T09:47:42.930Z,98.77
2018-12-17T09:48:45.732Z,98.63
2018-12-17T09:49:48.606Z,98.91
2018-12-17T09:50:51.404Z,99.11
2018-12-17T09:51:54.168Z,98.83
2018-12-17T09:52:56.916Z,98.44
2018-12-17T09:53:59.682Z,98.77
2018-12-17T09:55:02.433Z,99.13
2018-12-17T09:56:05.574Z,98.62
2018-12-17T09:57:08.858Z,98.69
2018-12-17T09:58:12.670Z,98.82
2018-12-17T09:59:16.308Z,98.58
2018-12-17T10:00:25.197Z,98.41
2018-12-17T10:01:23.967Z,98.47
2018-12-17T10:02:27.529Z,98.34
2018-12-17T10:03:31.118Z,98.43
2018-12-17T10:04:35.474Z,98.05
2018-12-17T10:05:38.331Z,97.93
2018-12-17T10:06:41.816Z,98.19
2018-12-17T10:07:44.656Z,98.63
2018-12-17T10:08:47.871Z,98.29
2018-12-17T10:09:50.695Z,98.74
2018-12-17T10:10:54.122Z,98.50
2018-12-17T10:11:56.916Z,98.64
2018-12-17T10:13:00.422Z,98.45
2018-12-17T10:14:04.857Z,98.47
2018-12-17T10:15:08.001Z,98.53
2018-12-17T10:16:13.284Z,98.75
2018-12-17T10:17:16.253Z,98.76
2018-12-17T10:18:19.076Z,99.10
2018-12-17T10:19:22.711Z,99.06
2018-12-17T10:20:26.203Z,98.81
2018-12-17T10:21:29.417Z,98.78
2018-12-17T10:22:32.325Z,98.72
2018-12-17T10:23:35.275Z,98.90
2018-12-17T10:24:38.166Z,98.62
2018-12-17T10:25:42.171Z,99.19
2018-12-17T10:26:45.701Z,98.87
2018-12-17T10:27:49.049Z,99.20
2018-12-17T10:28:53.120Z,99.21
2018-12-17T10:29:56.090Z,98.62
2018-12-17T10:30:59.637Z,99.11
2018-12-17T10:32:06.503Z,99.04
2018-12-17T10:33:11.460Z,99.22
2018-12-17T10:34:15.033Z,99.34
2018-12-17T10:35:18.022Z,98.85
2018-12-17T10:36:20.908Z,99.00
2018-12-17T10:37:25.722Z,98.83
2018-12-17T10:38:28.776Z,99.02
2018-12-17T10:39:32.017Z,98.73
2018-12-17T10:40:41.340Z,99.29
2018-12-17T10:41:47.539Z,98.72
2018-12-17T10:42:55.487Z,99.25
2018-12-17T10:43:58.475Z,99.13
2018-12-17T10:45:02.996Z,98.57
2018-12-17T10:46:06.130Z,98.83
2018-12-17T10:47:09.363Z,99.19
2018-12-17T10:48:13.441Z,99.12
2018-12-17T10:49:17.305Z,99.14
2018-12-17T10:50:20.560Z,99.12
2018-12-17T10:51:23.517Z,98.65
2018-12-17T10:52:26.889Z,99.19
2018-12-17T10:53:30.228Z,98.96
2018-12-17T10:54:33.233Z,99.06
2018-12-17T10:55:36.044Z,98.97
2018-12-17T10:56:39.052Z,98.88
2018-12-17T10:57:42.052Z,99.14
2018-12-17T10:58:45.163Z,98.83
2018-12-17T10:59:48.494Z,98.97
2018-12-17T11:00:56.366Z,98.70
2018-12-17T11:02:05.647Z,98.65
2018-12-17T11:03:13.608Z,98.98
2018-12-17T11:04:22.366Z,98.49
2018-12-17T11:05:28.131Z,98.61
2018-12-17T11:06:32.251Z,98.64
2018-12-17T11:07:35.049Z,98.70
2018-12-17T11:08:37.853Z,98.84
2018-12-17T11:09:41.548Z,98.14
2018-12-17T11:10:44.400Z,98.39
2018-12-17T11:11:47.203Z,98.49
2018-12-17T11:12:50.480Z,98.19
2018-12-17T11:13:53.252Z,98.55
2018-12-17T11:14:56.060Z,98.13
2018-12-17T11:15:58.851Z,98.29
2018-12-17T11:17:01.629Z,98.29
2018-12-17T11:18:04.428Z,98.26
2018-12-17T11:19:09.392Z,98.06
2018-12-17T11:20:12.210Z,98.11
2018-12-17T11:21:14.958Z,97.97
2018-12-17T11:22:17.849Z,98.01
2018-12-17T11:23:22.247Z,98.01
2018-12-17T11:24:26.322Z,97.81
2018-12-17T11:25:30.107Z,98.10
2018-12-17T11:26:33.839Z,97.93
2018-12-17T11:27:36.614Z,97.60
2018-12-17T11:28:39.688Z,98.10
2018-12-17T11:29:42.446Z,97.96
2018-12-17T11:43:55.156Z,97.67
2018-12-17T11:44:58.539Z,97.60
2018-12-17T11:46:03.373Z,97.39
2018-12-17T11:47:08.091Z,97.54
2018-12-17T11:49:18.773Z,97.95
2018-12-17T11:50:23.291Z,97.43
2018-12-17T11:51:26.104Z,97.73
2018-12-17T11:52:29.707Z,97.43
2018-12-17T11:53:41.418Z,97.88
2018-12-17T11:54:44.218Z,97.66
2018-12-17T11:55:47.246Z,97.56
2018-12-17T11:56:50.004Z,97.78
2018-12-17T11:57:52.738Z,97.86
2018-12-17T11:58:57.508Z,97.72
2018-12-17T12:00:00.958Z,97.97
2018-12-17T12:01:07.290Z,97.84
2018-12-17T12:02:10.166Z,97.63
2018-12-17T12:03:13.051Z,97.78
2018-12-17T12:04:17.332Z,97.27
2018-12-17T12:05:20.161Z,97.45
2018-12-17T12:06:23.323Z,97.15
2018-12-17T12:07:26.749Z,96.98
2018-12-17T12:08:31.603Z,97.32
2018-12-17T12:09:37.932Z,97.52
2018-12-17T12:10:40.711Z,97.32
2018-12-17T12:11:45.028Z,97.44
2018-12-17T12:12:48.615Z,97.54
2018-12-17T12:13:51.398Z,97.24
2018-12-17T12:14:54.244Z,97.14
2018-12-17T12:16:03.413Z,97.20
2018-12-17T12:17:06.839Z,97.25
2018-12-17T12:18:10.538Z,97.57
2018-12-17T12:19:13.993Z,97.50
2018-12-17T12:20:18.765Z,97.26
2018-12-17T12:21:21.625Z,97.31
2018-12-17T12:22:24.798Z,96.98
2018-12-17T12:23:27.648Z,96.67
2018-12-17T12:24:31.616Z,97.05
2018-12-17T12:25:35.132Z,96.43
2018-12-17T12:26:38.872Z,96.57
2018-12-17T12:27:41.738Z,96.49
2018-12-17T12:28:44.790Z,96.72
2018-12-17T12:29:47.572Z,96.48
2018-12-17T12:30:50.986Z,96.82
2018-12-17T12:31:53.801Z,96.33
2018-12-17T12:32:57.721Z,96.80
2018-12-17T12:34:00.735Z,96.53
2018-12-17T12:35:04.861Z,96.71
2018-12-17T12:36:08.627Z,96.57
2018-12-17T12:37:12.557Z,96.76
2018-12-17T12:38:15.469Z,96.32
2018-12-17T12:39:19.046Z,96.32
2018-12-17T12:40:21.970Z,96.14
2018-12-17T12:41:25.574Z,96.65
2018-12-17T12:42:29.833Z,96.34
2018-12-17T12:43:32.799Z,96.38
2018-12-17T12:44:36.651Z,96.64
2018-12-17T12:45:39.793Z,96.71
2018-12-17T12:46:45.317Z,96.65
2018-12-17T12:47:51.402Z,96.27
2018-12-17T12:48:54.560Z,96.30
2018-12-17T12:49:58.023Z,96.47
2018-12-17T12:51:00.899Z,96.65
2018-12-17T12:52:03.753Z,96.65
2018-12-17T12:53:10.080Z,96.46
2018-12-17T12:54:14.597Z,96.48
2018-12-17T12:55:17.417Z,96.45
2018-12-17T12:56:20.963Z,96.30
2018-12-17T12:57:23.872Z,96.57
2018-12-17T12:58:26.696Z,96.12
2018-12-17T12:59:30.879Z,95.88
2018-12-17T13:00:35.768Z,95.62
2018-12-17T13:01:39.934Z,95.60
2018-12-17T13:02:43.331Z,95.27
2018-12-17T13:03:46.600Z,95.11
2018-12-17T13:04:50.605Z,95.21
2018-12-17T13:05:53.595Z,95.07
2018-12-17T13:06:56.668Z,95.30
2018-12-17T13:07:59.995Z,95.22
2018-12-17T13:09:02.860Z,95.07
2018-12-17T13:10:07.240Z,95.37
2018-12-17T13:11:11.112Z,95.67
2018-12-17T13:12:13.878Z,95.83
2018-12-17T13:13:16.760Z,95.65
2018-12-17T13:14:20.538Z,95.19
2018-12-17T13:15:25.249Z,95.28
2018-12-17T13:16:28.451Z,95.10
2018-12-17T13:17:32.147Z,95.06
2018-12-17T13:18:35.669Z,95.34
2018-12-17T13:19:38.828Z,95.49
2018-12-17T13:20:42.461Z,95.60
2018-12-17T13:21:45.290Z,95.26
2018-12-17T13:22:48.119Z,95.45
2018-12-17T13:23:51.211Z,95.45
2018-12-17T13:24:53.994Z,95.11
2018-12-17T13:25:57.796Z,95.39
2018-12-17T13:27:01.724Z,95.53
2018-12-17T13:28:04.599Z,95.41
2018-12-17T13:29:07.475Z,95.50
2018-12-17T13:30:10.454Z,95.28
2018-12-17T13:31:14.740Z,95.27
2018-12-17T13:32:17.863Z,95.29
2018-12-17T13:33:21.570Z,95.68
2018-12-17T13:34:25.033Z,94.90
2018-12-17T13:35:28.023Z,94.92
2018-12-17T13:36:32.029Z,95.09
2018-12-17T13:37:34.986Z,95.37
2018-12-17T13:38:38.248Z,95.44
2018-12-17T13:39:41.983Z,95.07
2018-12-17T13:40:44.833Z,95.00
2018-12-17T13:41:47.740Z,95.23
2018-12-17T13:42:50.731Z,95.41
2018-12-17T13:43:53.654Z,94.96
2018-12-17T13:44:58.666Z,95.10
2018-12-17T13:46:01.780Z,94.94
2018-12-17T13:47:04.800Z,95.00
2018-12-17T13:48:08.077Z,95.10
2018-12-17T13:49:11.910Z,94.79
2018-12-17T13:50:19.822Z,94.32
2018-12-17T13:51:28.358Z,94.82
2018-12-17T13:52:37.279Z,94.03
2018-12-17T13:53:40.391Z,94.20
2018-12-17T13:54:43.371Z,94.56
2018-12-17T13:55:46.183Z,94.87
2018-12-17T13:56:51.731Z,94.69
2018-12-17T13:57:55.562Z,94.67
2018-12-17T13:58:58.793Z,94.58
2018-12-17T14:00:02.497Z,94.80
2018-12-17T14:01:08.022Z,94.70
2018-12-17T14:02:11.212Z,94.77
2018-12-17T14:03:14.001Z,94.43
2018-12-17T14:04:17.212Z,94.80
2018-12-17T14:05:20.025Z,94.80
2018-12-17T14:06:24.141Z,95.08
2018-12-17T14:07:28.634Z,95.05
2018-12-17T14:08:31.928Z,94.78
2018-12-17T14:09:38.941Z,94.69
2018-12-17T14:10:47.798Z,95.03
2018-12-17T14:11:50.638Z,94.96
2018-12-17T14:12:53.473Z,94.68
2018-12-17T14:13:57.573Z,94.65
2018-12-17T14:15:00.470Z,94.38
2018-12-17T14:16:08.280Z,94.90
2018-12-17T14:17:16.342Z,94.65
2018-12-17T14:18:25.236Z,94.56
2018-12-17T14:19:28.030Z,94.25
2018-12-17T14:20:35.695Z,94.62
2018-12-17T14:21:43.452Z,94.47
2018-12-17T14:22:47.257Z,94.34
2018-12-17T14:23:51.838Z,94.33
2018-12-17T14:24:54.615Z,94.43
2018-12-17T14:25:57.443Z,94.72
2018-12-17T14:27:02.016Z,94.16
2018-12-17T14:28:05.968Z,94.22
2018-12-17T14:29:09.983Z,94.52
2018-12-17T14:30:12.982Z,94.47
2018-12-17T14:31:16.188Z,94.29
2018-12-17T14:32:19.321Z,94.09
2018-12-17T14:33:22.445Z,94.03
2018-12-17T14:34:25.303Z,93.88
2018-12-17T14:35:28.535Z,94.01
2018-12-17T14:36:31.408Z,93.49
2018-12-17T14:37:36.464Z,93.62
2018-12-17T14:38:41.206Z,94.03
2018-12-17T14:39:44.298Z,94.27
2018-12-17T14:40:47.851Z,94.13
2018-12-17T14:41:51.026Z,94.65
2018-12-17T14:42:54.012Z,94.71
2018-12-17T14:44:00.760Z,94.33
2018-12-17T14:45:04.395Z,94.39
2018-12-17T14:46:07.177Z,94.84
2018-12-17T14:47:11.553Z,94.87
2018-12-17T14:48:14.782Z,95.00
2018-12-17T14:49:19.570Z,94.73
2018-12-17T14:50:22.480Z,94.97
2018-12-17T14:51:25.305Z,95.31
2018-12-17T14:52:28.069Z,95.51
2018-12-17T14:53:31.263Z,95.25
2018-12-17T14:54:34.828Z,95.36
2018-12-17T14:56:45.387Z,95.13
2018-12-17T14:57:48.176Z,95.56
2018-12-17T14:58:50.991Z,95.78
2018-12-17T14:59:54.771Z,95.81
2018-12-17T15:00:58.445Z,95.31
2018-12-17T15:02:01.251Z,95.46
2018-12-17T15:03:04.637Z,95.42
2018-12-17T15:04:07.434Z,95.62
2018-12-17T15:05:11.181Z,95.26
2018-12-17T15:06:15.243Z,95.70
2018-12-17T15:07:18.921Z,95.84